Terminal Aerodrome Forecast
Issued by NWS Albany, NY

Home | Current Version | Previous Version | Text Only | Print | Product List | Glossary On
Versions: 1 2 3 4 5 6 7 8 9 10 11 12 13 14 15 16 17 18 19
000
FTUS41 KALY 310500 RRA
TAFPOU
TAF
KPOU 310541Z 3106/0106 00000KT P6SM SCT050 BKN100
     FM311300 22005KT P6SM BKN050 BKN090
     FM311600 21008KT P6SM VCSH BKN040 OVC080
     FM312100 22006KT P6SM SCT050 SCT100
     FM010000 VRB03KT P6SM SCT050=

USA.gov is the U.S. government's official web portal to all federal, state and local government web resources and services.